sensor_id;sensor_type;location;lat;lon;timestamp;P1;durP1;ratioP1;P2;durP2;ratioP2
78336;SDS011;67610;51.588;7.002;2023-04-02T00:02:45;3.85;;;2.40;;
78336;SDS011;67610;51.588;7.002;2023-04-02T00:07:40;3.92;;;2.33;;
78336;SDS011;67610;51.588;7.002;2023-04-02T00:15:36;4.35;;;2.75;;
78336;SDS011;67610;51.588;7.002;2023-04-02T00:18:05;3.75;;;2.45;;
78336;SDS011;67610;51.588;7.002;2023-04-02T00:20:32;3.97;;;2.50;;
78336;SDS011;67610;51.588;7.002;2023-04-02T00:23:02;4.00;;;2.55;;
78336;SDS011;67610;51.588;7.002;2023-04-02T00:25:29;3.30;;;2.40;;
78336;SDS011;67610;51.588;7.002;2023-04-02T00:28:00;3.55;;;2.33;;
78336;SDS011;67610;51.588;7.002;2023-04-02T00:30:27;4.05;;;2.38;;
78336;SDS011;67610;51.588;7.002;2023-04-02T00:32:53;3.78;;;2.10;;
78336;SDS011;67610;51.588;7.002;2023-04-02T00:35:23;3.20;;;2.10;;
78336;SDS011;67610;51.588;7.002;2023-04-02T00:37:53;4.43;;;2.50;;
78336;SDS011;67610;51.588;7.002;2023-04-02T00:40:21;3.42;;;2.50;;
78336;SDS011;67610;51.588;7.002;2023-04-02T00:42:49;3.47;;;2.30;;
78336;SDS011;67610;51.588;7.002;2023-04-02T00:47:48;3.40;;;2.17;;
78336;SDS011;67610;51.588;7.002;2023-04-02T00:52:40;3.55;;;2.33;;
78336;SDS011;67610;51.588;7.002;2023-04-02T00:55:53;2.78;;;1.98;;
78336;SDS011;67610;51.588;7.002;2023-04-02T00:58:03;4.05;;;2.53;;
78336;SDS011;67610;51.588;7.002;2023-04-02T01:00:36;3.47;;;2.30;;
78336;SDS011;67610;51.588;7.002;2023-04-02T01:05:47;3.47;;;2.30;;
78336;SDS011;67610;51.588;7.002;2023-04-02T01:08:18;3.78;;;2.45;;
78336;SDS011;67610;51.588;7.002;2023-04-02T01:11:26;4.78;;;2.75;;
78336;SDS011;67610;51.588;7.002;2023-04-02T01:21:56;4.18;;;2.40;;
78336;SDS011;67610;51.588;7.002;2023-04-02T01:24:31;3.55;;;2.10;;
78336;SDS011;67610;51.588;7.002;2023-04-02T01:26:59;3.70;;;2.30;;
78336;SDS011;67610;51.588;7.002;2023-04-02T01:29:29;4.85;;;2.35;;
78336;SDS011;67610;51.588;7.002;2023-04-02T01:31:59;3.67;;;2.50;;
78336;SDS011;67610;51.588;7.002;2023-04-02T01:34:28;2.95;;;2.00;;
78336;SDS011;67610;51.588;7.002;2023-04-02T01:37:01;3.72;;;2.30;;
78336;SDS011;67610;51.588;7.002;2023-04-02T01:42:16;3.80;;;2.40;;
78336;SDS011;67610;51.588;7.002;2023-04-02T01:44:50;4.10;;;2.55;;
78336;SDS011;67610;51.588;7.002;2023-04-02T01:47:29;3.50;;;2.38;;
78336;SDS011;67610;51.588;7.002;2023-04-02T01:49:56;4.28;;;2.50;;
78336;SDS011;67610;51.588;7.002;2023-04-02T01:52:33;3.28;;;2.30;;
78336;SDS011;67610;51.588;7.002;2023-04-02T01:55:03;3.20;;;2.20;;
78336;SDS011;67610;51.588;7.002;2023-04-02T01:57:30;3.65;;;2.50;;
78336;SDS011;67610;51.588;7.002;2023-04-02T01:59:55;4.45;;;2.58;;
78336;SDS011;67610;51.588;7.002;2023-04-02T02:02:24;3.65;;;2.28;;
78336;SDS011;67610;51.588;7.002;2023-04-02T02:04:50;3.42;;;2.17;;
78336;SDS011;67610;51.588;7.002;2023-04-02T02:07:17;3.22;;;2.08;;
78336;SDS011;67610;51.588;7.002;2023-04-02T02:12:11;3.47;;;2.20;;
78336;SDS011;67610;51.588;7.002;2023-04-02T02:14:38;3.15;;;2.28;;
78336;SDS011;67610;51.588;7.002;2023-04-02T02:17:04;3.42;;;2.10;;
78336;SDS011;67610;51.588;7.002;2023-04-02T02:19:37;3.05;;;2.25;;
78336;SDS011;67610;51.588;7.002;2023-04-02T02:22:16;3.58;;;2.10;;
78336;SDS011;67610;51.588;7.002;2023-04-02T02:25:02;3.65;;;2.38;;
78336;SDS011;67610;51.588;7.002;2023-04-02T02:27:45;2.83;;;2.10;;
78336;SDS011;67610;51.588;7.002;2023-04-02T02:30:28;3.50;;;2.20;;
78336;SDS011;67610;51.588;7.002;2023-04-02T02:32:57;3.88;;;2.13;;
78336;SDS011;67610;51.588;7.002;2023-04-02T02:35:33;3.97;;;2.55;;
78336;SDS011;67610;51.588;7.002;2023-04-02T02:38:18;4.00;;;2.53;;
78336;SDS011;67610;51.588;7.002;2023-04-02T02:40:51;3.63;;;2.28;;
78336;SDS011;67610;51.588;7.002;2023-04-02T02:43:20;4.05;;;2.50;;
78336;SDS011;67610;51.588;7.002;2023-04-02T02:45:46;4.03;;;2.28;;
78336;SDS011;67610;51.588;7.002;2023-04-02T02:48:14;4.38;;;2.88;;
78336;SDS011;67610;51.588;7.002;2023-04-02T02:50:43;3.50;;;2.30;;
78336;SDS011;67610;51.588;7.002;2023-04-02T02:53:18;3.40;;;2.20;;
78336;SDS011;67610;51.588;7.002;2023-04-02T02:55:45;3.75;;;2.40;;
78336;SDS011;67610;51.588;7.002;2023-04-02T02:58:15;3.50;;;2.28;;
78336;SDS011;67610;51.588;7.002;2023-04-02T03:00:44;3.95;;;2.50;;
78336;SDS011;67610;51.588;7.002;2023-04-02T03:03:12;3.30;;;2.40;;
78336;SDS011;67610;51.588;7.002;2023-04-02T03:05:41;3.20;;;2.17;;
78336;SDS011;67610;51.588;7.002;2023-04-02T03:08:09;3.83;;;2.50;;
78336;SDS011;67610;51.588;7.002;2023-04-02T03:13:33;4.07;;;2.45;;
78336;SDS011;67610;51.588;7.002;2023-04-02T03:18:54;3.65;;;2.40;;
78336;SDS011;67610;51.588;7.002;2023-04-02T03:21:29;4.07;;;2.80;;
78336;SDS011;67610;51.588;7.002;2023-04-02T03:23:59;3.70;;;2.53;;
78336;SDS011;67610;51.588;7.002;2023-04-02T03:26:51;3.53;;;2.65;;
78336;SDS011;67610;51.588;7.002;2023-04-02T03:29:45;3.53;;;2.42;;
78336;SDS011;67610;51.588;7.002;2023-04-02T03:32:22;4.30;;;2.75;;
78336;SDS011;67610;51.588;7.002;2023-04-02T03:37:53;5.20;;;2.83;;
78336;SDS011;67610;51.588;7.002;2023-04-02T03:40:25;5.00;;;3.10;;
78336;SDS011;67610;51.588;7.002;2023-04-02T03:42:59;4.03;;;2.72;;
78336;SDS011;67610;51.588;7.002;2023-04-02T03:45:52;4.30;;;3.13;;
78336;SDS011;67610;51.588;7.002;2023-04-02T03:50:54;4.38;;;2.97;;
78336;SDS011;67610;51.588;7.002;2023-04-02T03:53:26;6.03;;;3.30;;
78336;SDS011;67610;51.588;7.002;2023-04-02T03:55:53;4.90;;;3.10;;
78336;SDS011;67610;51.588;7.002;2023-04-02T03:58:26;5.32;;;3.47;;
78336;SDS011;67610;51.588;7.002;2023-04-02T04:03:30;6.00;;;3.30;;
78336;SDS011;67610;51.588;7.002;2023-04-02T04:06:06;5.93;;;3.17;;
78336;SDS011;67610;51.588;7.002;2023-04-02T04:08:38;5.53;;;3.30;;
78336;SDS011;67610;51.588;7.002;2023-04-02T04:11:11;7.85;;;3.60;;
78336;SDS011;67610;51.588;7.002;2023-04-02T04:13:48;5.60;;;3.25;;
78336;SDS011;67610;51.588;7.002;2023-04-02T04:16:21;7.10;;;3.60;;
78336;SDS011;67610;51.588;7.002;2023-04-02T04:19:02;6.28;;;3.63;;
78336;SDS011;67610;51.588;7.002;2023-04-02T04:21:32;6.05;;;3.70;;
78336;SDS011;67610;51.588;7.002;2023-04-02T04:24:13;7.53;;;4.05;;
78336;SDS011;67610;51.588;7.002;2023-04-02T04:26:53;6.47;;;4.50;;
78336;SDS011;67610;51.588;7.002;2023-04-02T04:35:05;6.30;;;3.78;;
78336;SDS011;67610;51.588;7.002;2023-04-02T04:37:39;5.80;;;3.50;;
78336;SDS011;67610;51.588;7.002;2023-04-02T04:40:22;7.55;;;4.05;;
78336;SDS011;67610;51.588;7.002;2023-04-02T04:42:52;8.27;;;4.20;;
78336;SDS011;67610;51.588;7.002;2023-04-02T04:45:42;6.82;;;3.75;;
78336;SDS011;67610;51.588;7.002;2023-04-02T04:48:24;6.78;;;4.00;;
78336;SDS011;67610;51.588;7.002;2023-04-02T04:50:59;8.05;;;3.80;;
78336;SDS011;67610;51.588;7.002;2023-04-02T04:53:28;10.43;;;4.20;;
78336;SDS011;67610;51.588;7.002;2023-04-02T04:56:04;6.35;;;3.92;;
78336;SDS011;67610;51.588;7.002;2023-04-02T04:58:32;6.97;;;4.38;;
78336;SDS011;67610;51.588;7.002;2023-04-02T05:01:03;7.72;;;3.97;;
78336;SDS011;67610;51.588;7.002;2023-04-02T05:03:36;7.82;;;4.30;;
78336;SDS011;67610;51.588;7.002;2023-04-02T05:06:12;8.32;;;4.05;;
78336;SDS011;67610;51.588;7.002;2023-04-02T05:08:48;7.13;;;4.10;;
78336;SDS011;67610;51.588;7.002;2023-04-02T05:11:29;5.22;;;3.70;;
78336;SDS011;67610;51.588;7.002;2023-04-02T05:14:02;6.50;;;4.00;;
78336;SDS011;67610;51.588;7.002;2023-04-02T05:16:35;6.47;;;4.13;;
78336;SDS011;67610;51.588;7.002;2023-04-02T05:25:24;7.10;;;4.07;;
78336;SDS011;67610;51.588;7.002;2023-04-02T05:32:55;6.97;;;3.72;;
78336;SDS011;67610;51.588;7.002;2023-04-02T05:35:30;7.07;;;4.05;;
78336;SDS011;67610;51.588;7.002;2023-04-02T05:37:59;6.35;;;3.53;;
78336;SDS011;67610;51.588;7.002;2023-04-02T05:40:28;6.18;;;3.78;;
78336;SDS011;67610;51.588;7.002;2023-04-02T05:42:57;6.78;;;3.65;;
78336;SDS011;67610;51.588;7.002;2023-04-02T05:45:28;8.82;;;4.20;;
78336;SDS011;67610;51.588;7.002;2023-04-02T05:47:58;6.55;;;3.28;;
78336;SDS011;67610;51.588;7.002;2023-04-02T05:50:28;6.30;;;3.72;;
78336;SDS011;67610;51.588;7.002;2023-04-02T05:58:45;6.43;;;3.63;;
78336;SDS011;67610;51.588;7.002;2023-04-02T06:01:01;5.90;;;3.15;;
78336;SDS011;67610;51.588;7.002;2023-04-02T06:06:16;8.18;;;3.30;;
78336;SDS011;67610;51.588;7.002;2023-04-02T06:08:55;8.10;;;3.88;;
78336;SDS011;67610;51.588;7.002;2023-04-02T06:11:31;10.10;;;3.33;;
78336;SDS011;67610;51.588;7.002;2023-04-02T06:14:07;6.55;;;3.13;;
78336;SDS011;67610;51.588;7.002;2023-04-02T06:16:37;5.55;;;3.10;;
78336;SDS011;67610;51.588;7.002;2023-04-02T06:19:04;6.57;;;2.92;;
78336;SDS011;67610;51.588;7.002;2023-04-02T06:21:44;7.18;;;3.30;;
78336;SDS011;67610;51.588;7.002;2023-04-02T06:24:10;6.13;;;3.22;;
78336;SDS011;67610;51.588;7.002;2023-04-02T06:26:41;5.38;;;3.10;;
78336;SDS011;67610;51.588;7.002;2023-04-02T06:29:20;6.82;;;3.25;;
78336;SDS011;67610;51.588;7.002;2023-04-02T06:31:54;8.48;;;3.08;;
78336;SDS011;67610;51.588;7.002;2023-04-02T06:34:23;6.55;;;3.40;;
78336;SDS011;67610;51.588;7.002;2023-04-02T06:37:02;10.77;;;3.00;;
78336;SDS011;67610;51.588;7.002;2023-04-02T06:39:36;7.63;;;2.97;;
78336;SDS011;67610;51.588;7.002;2023-04-02T06:42:05;5.70;;;2.80;;
78336;SDS011;67610;51.588;7.002;2023-04-02T06:44:37;5.88;;;2.88;;
78336;SDS011;67610;51.588;7.002;2023-04-02T06:47:05;5.53;;;2.90;;
78336;SDS011;67610;51.588;7.002;2023-04-02T06:49:45;7.22;;;3.03;;
78336;SDS011;67610;51.588;7.002;2023-04-02T06:52:20;4.60;;;2.60;;
78336;SDS011;67610;51.588;7.002;2023-04-02T06:54:50;6.78;;;2.88;;
78336;SDS011;67610;51.588;7.002;2023-04-02T06:57:15;6.88;;;3.30;;
78336;SDS011;67610;51.588;7.002;2023-04-02T06:59:41;4.45;;;2.83;;
78336;SDS011;67610;51.588;7.002;2023-04-02T07:05:02;6.22;;;2.50;;
78336;SDS011;67610;51.588;7.002;2023-04-02T07:07:33;8.40;;;3.00;;
78336;SDS011;67610;51.588;7.002;2023-04-02T07:09:58;7.10;;;2.58;;
78336;SDS011;67610;51.588;7.002;2023-04-02T07:12:24;5.60;;;2.90;;
78336;SDS011;67610;51.588;7.002;2023-04-02T07:14:50;5.13;;;2.45;;
78336;SDS011;67610;51.588;7.002;2023-04-02T07:17:16;8.93;;;3.95;;
78336;SDS011;67610;51.588;7.002;2023-04-02T07:19:42;6.68;;;3.00;;
78336;SDS011;67610;51.588;7.002;2023-04-02T07:22:09;5.53;;;2.47;;
78336;SDS011;67610;51.588;7.002;2023-04-02T07:24:35;7.15;;;2.90;;
78336;SDS011;67610;51.588;7.002;2023-04-02T07:27:00;7.55;;;2.60;;
78336;SDS011;67610;51.588;7.002;2023-04-02T07:29:26;6.70;;;2.95;;
78336;SDS011;67610;51.588;7.002;2023-04-02T07:31:51;5.35;;;2.58;;
78336;SDS011;67610;51.588;7.002;2023-04-02T07:34:18;4.85;;;2.53;;
78336;SDS011;67610;51.588;7.002;2023-04-02T07:36:43;6.78;;;2.83;;
78336;SDS011;67610;51.588;7.002;2023-04-02T07:39:09;6.90;;;2.40;;
78336;SDS011;67610;51.588;7.002;2023-04-02T07:41:49;4.53;;;2.50;;
78336;SDS011;67610;51.588;7.002;2023-04-02T07:44:24;5.20;;;2.63;;
78336;SDS011;67610;51.588;7.002;2023-04-02T07:46:50;5.75;;;2.22;;
78336;SDS011;67610;51.588;7.002;2023-04-02T07:49:15;5.60;;;2.65;;
78336;SDS011;67610;51.588;7.002;2023-04-02T07:51:41;3.90;;;2.38;;
78336;SDS011;67610;51.588;7.002;2023-04-02T07:54:06;5.00;;;2.60;;
78336;SDS011;67610;51.588;7.002;2023-04-02T07:56:34;7.60;;;2.47;;
78336;SDS011;67610;51.588;7.002;2023-04-02T07:59:00;7.22;;;2.80;;
78336;SDS011;67610;51.588;7.002;2023-04-02T08:01:26;4.13;;;2.53;;
78336;SDS011;67610;51.588;7.002;2023-04-02T08:03:54;4.03;;;2.33;;
78336;SDS011;67610;51.588;7.002;2023-04-02T08:06:21;5.80;;;2.60;;
78336;SDS011;67610;51.588;7.002;2023-04-02T08:08:54;7.07;;;2.60;;
78336;SDS011;67610;51.588;7.002;2023-04-02T08:11:20;4.47;;;2.17;;
78336;SDS011;67610;51.588;7.002;2023-04-02T08:13:45;5.60;;;2.30;;
78336;SDS011;67610;51.588;7.002;2023-04-02T08:16:11;7.50;;;2.70;;
78336;SDS011;67610;51.588;7.002;2023-04-02T08:18:37;6.57;;;2.40;;
78336;SDS011;67610;51.588;7.002;2023-04-02T08:21:06;4.93;;;2.55;;
78336;SDS011;67610;51.588;7.002;2023-04-02T08:23:33;5.28;;;2.38;;
78336;SDS011;67610;51.588;7.002;2023-04-02T08:25:59;4.15;;;2.13;;
78336;SDS011;67610;51.588;7.002;2023-04-02T08:28:25;3.22;;;2.13;;
78336;SDS011;67610;51.588;7.002;2023-04-02T08:30:51;8.27;;;2.40;;
78336;SDS011;67610;51.588;7.002;2023-04-02T08:33:16;5.72;;;3.03;;
78336;SDS011;67610;51.588;7.002;2023-04-02T08:35:46;6.00;;;2.80;;
78336;SDS011;67610;51.588;7.002;2023-04-02T08:38:13;4.45;;;2.40;;
78336;SDS011;67610;51.588;7.002;2023-04-02T08:40:41;5.00;;;2.00;;
78336;SDS011;67610;51.588;7.002;2023-04-02T08:43:22;4.10;;;2.20;;
78336;SDS011;67610;51.588;7.002;2023-04-02T08:48:55;6.07;;;2.40;;
78336;SDS011;67610;51.588;7.002;2023-04-02T08:51:25;5.22;;;2.60;;
78336;SDS011;67610;51.588;7.002;2023-04-02T08:53:54;4.03;;;2.33;;
78336;SDS011;67610;51.588;7.002;2023-04-02T08:56:28;4.75;;;2.53;;
78336;SDS011;67610;51.588;7.002;2023-04-02T08:58:58;5.47;;;2.63;;
78336;SDS011;67610;51.588;7.002;2023-04-02T09:01:53;4.78;;;2.28;;
78336;SDS011;67610;51.588;7.002;2023-04-02T09:04:20;4.15;;;2.30;;
78336;SDS011;67610;51.588;7.002;2023-04-02T09:06:49;3.75;;;1.90;;
78336;SDS011;67610;51.588;7.002;2023-04-02T09:09:17;5.00;;;2.15;;
78336;SDS011;67610;51.588;7.002;2023-04-02T09:14:14;5.13;;;2.50;;
78336;SDS011;67610;51.588;7.002;2023-04-02T09:16:57;4.47;;;2.17;;
78336;SDS011;67610;51.588;7.002;2023-04-02T09:24:33;3.90;;;2.35;;
78336;SDS011;67610;51.588;7.002;2023-04-02T09:26:59;4.28;;;2.00;;
78336;SDS011;67610;51.588;7.002;2023-04-02T09:43:24;3.65;;;2.20;;
78336;SDS011;67610;51.588;7.002;2023-04-02T09:46:02;5.15;;;2.55;;
78336;SDS011;67610;51.588;7.002;2023-04-02T09:53:36;3.90;;;2.28;;
78336;SDS011;67610;51.588;7.002;2023-04-02T09:56:13;3.80;;;2.53;;
78336;SDS011;67610;51.588;7.002;2023-04-02T09:58:44;4.40;;;2.30;;
78336;SDS011;67610;51.588;7.002;2023-04-02T10:01:23;5.88;;;2.25;;
78336;SDS011;67610;51.588;7.002;2023-04-02T10:03:55;3.22;;;1.95;;
78336;SDS011;67610;51.588;7.002;2023-04-02T10:06:20;4.80;;;2.00;;
78336;SDS011;67610;51.588;7.002;2023-04-02T10:08:46;4.00;;;2.10;;
78336;SDS011;67610;51.588;7.002;2023-04-02T10:11:29;5.88;;;2.25;;
78336;SDS011;67610;51.588;7.002;2023-04-02T10:14:05;4.10;;;2.45;;
78336;SDS011;67610;51.588;7.002;2023-04-02T10:16:43;4.45;;;2.10;;
78336;SDS011;67610;51.588;7.002;2023-04-02T10:19:28;3.33;;;2.00;;
78336;SDS011;67610;51.588;7.002;2023-04-02T10:22:16;6.28;;;2.42;;
78336;SDS011;67610;51.588;7.002;2023-04-02T10:24:43;5.38;;;2.25;;
78336;SDS011;67610;51.588;7.002;2023-04-02T10:32:31;5.18;;;2.08;;
78336;SDS011;67610;51.588;7.002;2023-04-02T10:35:02;3.67;;;2.03;;
78336;SDS011;67610;51.588;7.002;2023-04-02T10:37:53;3.33;;;1.90;;
78336;SDS011;67610;51.588;7.002;2023-04-02T10:40:41;3.67;;;1.83;;
78336;SDS011;67610;51.588;7.002;2023-04-02T10:43:22;3.88;;;1.90;;
78336;SDS011;67610;51.588;7.002;2023-04-02T10:57:18;4.13;;;2.20;;
78336;SDS011;67610;51.588;7.002;2023-04-02T11:00:12;4.53;;;2.50;;
78336;SDS011;67610;51.588;7.002;2023-04-02T11:08:00;3.13;;;2.17;;
78336;SDS011;67610;51.588;7.002;2023-04-02T11:10:32;4.85;;;2.15;;
78336;SDS011;67610;51.588;7.002;2023-04-02T11:13:50;4.60;;;2.30;;
78336;SDS011;67610;51.588;7.002;2023-04-02T11:16:01;3.45;;;2.10;;
78336;SDS011;67610;51.588;7.002;2023-04-02T11:18:31;2.97;;;1.92;;
78336;SDS011;67610;51.588;7.002;2023-04-02T11:24:03;3.47;;;1.95;;
78336;SDS011;67610;51.588;7.002;2023-04-02T11:26:33;5.03;;;2.00;;
78336;SDS011;67610;51.588;7.002;2023-04-02T11:31:46;4.45;;;2.35;;
78336;SDS011;67610;51.588;7.002;2023-04-02T11:34:14;4.28;;;2.03;;
78336;SDS011;67610;51.588;7.002;2023-04-02T11:37:01;4.93;;;1.95;;
78336;SDS011;67610;51.588;7.002;2023-04-02T11:39:45;3.47;;;1.90;;
78336;SDS011;67610;51.588;7.002;2023-04-02T11:44:43;3.28;;;1.80;;
78336;SDS011;67610;51.588;7.002;2023-04-02T11:47:16;3.13;;;1.80;;
78336;SDS011;67610;51.588;7.002;2023-04-02T11:49:56;3.67;;;1.70;;
78336;SDS011;67610;51.588;7.002;2023-04-02T11:52:48;3.20;;;1.90;;
78336;SDS011;67610;51.588;7.002;2023-04-02T11:55:30;1.92;;;1.58;;
78336;SDS011;67610;51.588;7.002;2023-04-02T12:03:13;4.10;;;1.90;;
78336;SDS011;67610;51.588;7.002;2023-04-02T12:06:03;4.13;;;2.10;;
78336;SDS011;67610;51.588;7.002;2023-04-02T12:11:32;5.68;;;2.22;;
78336;SDS011;67610;51.588;7.002;2023-04-02T12:14:01;4.80;;;2.35;;
78336;SDS011;67610;51.588;7.002;2023-04-02T12:16:32;4.10;;;2.33;;
78336;SDS011;67610;51.588;7.002;2023-04-02T12:18:58;4.15;;;1.83;;
78336;SDS011;67610;51.588;7.002;2023-04-02T12:21:26;3.42;;;2.00;;
78336;SDS011;67610;51.588;7.002;2023-04-02T12:23:54;3.20;;;1.88;;
78336;SDS011;67610;51.588;7.002;2023-04-02T12:26:27;3.80;;;2.05;;
78336;SDS011;67610;51.588;7.002;2023-04-02T12:29:21;3.53;;;1.85;;
78336;SDS011;67610;51.588;7.002;2023-04-02T12:31:48;4.40;;;1.80;;
78336;SDS011;67610;51.588;7.002;2023-04-02T12:34:14;3.80;;;1.92;;
78336;SDS011;67610;51.588;7.002;2023-04-02T12:39:17;2.70;;;2.00;;
78336;SDS011;67610;51.588;7.002;2023-04-02T12:41:42;4.75;;;1.90;;
78336;SDS011;67610;51.588;7.002;2023-04-02T12:44:12;2.72;;;1.90;;
78336;SDS011;67610;51.588;7.002;2023-04-02T12:46:43;6.10;;;2.33;;
78336;SDS011;67610;51.588;7.002;2023-04-02T12:49:22;3.28;;;2.13;;
78336;SDS011;67610;51.588;7.002;2023-04-02T12:51:54;2.85;;;1.65;;
78336;SDS011;67610;51.588;7.002;2023-04-02T12:54:21;3.85;;;2.03;;
78336;SDS011;67610;51.588;7.002;2023-04-02T12:56:47;4.57;;;2.00;;
78336;SDS011;67610;51.588;7.002;2023-04-02T12:59:23;3.88;;;2.10;;
78336;SDS011;67610;51.588;7.002;2023-04-02T13:01:59;3.38;;;1.98;;
78336;SDS011;67610;51.588;7.002;2023-04-02T13:04:26;3.28;;;1.92;;
78336;SDS011;67610;51.588;7.002;2023-04-02T13:06:52;4.32;;;2.15;;
78336;SDS011;67610;51.588;7.002;2023-04-02T13:09:30;5.53;;;2.15;;
78336;SDS011;67610;51.588;7.002;2023-04-02T13:12:00;4.57;;;2.30;;
78336;SDS011;67610;51.588;7.002;2023-04-02T13:14:26;3.80;;;2.10;;
78336;SDS011;67610;51.588;7.002;2023-04-02T13:16:53;3.33;;;1.70;;
78336;SDS011;67610;51.588;7.002;2023-04-02T13:19:20;3.65;;;2.10;;
78336;SDS011;67610;51.588;7.002;2023-04-02T13:21:46;4.85;;;2.05;;
78336;SDS011;67610;51.588;7.002;2023-04-02T13:24:19;3.55;;;2.00;;
78336;SDS011;67610;51.588;7.002;2023-04-02T13:26:56;2.90;;;1.90;;
78336;SDS011;67610;51.588;7.002;2023-04-02T13:31:52;3.60;;;2.15;;
78336;SDS011;67610;51.588;7.002;2023-04-02T13:34:20;4.80;;;2.00;;
78336;SDS011;67610;51.588;7.002;2023-04-02T13:36:46;4.15;;;1.85;;
78336;SDS011;67610;51.588;7.002;2023-04-02T13:39:12;3.15;;;1.83;;
78336;SDS011;67610;51.588;7.002;2023-04-02T13:42:11;2.92;;;1.70;;
78336;SDS011;67610;51.588;7.002;2023-04-02T13:46:59;4.35;;;1.90;;
78336;SDS011;67610;51.588;7.002;2023-04-02T13:49:25;4.53;;;1.92;;
78336;SDS011;67610;51.588;7.002;2023-04-02T13:52:13;5.63;;;2.17;;
78336;SDS011;67610;51.588;7.002;2023-04-02T13:54:48;4.13;;;2.10;;
78336;SDS011;67610;51.588;7.002;2023-04-02T13:57:17;3.17;;;1.90;;
78336;SDS011;67610;51.588;7.002;2023-04-02T13:59:42;4.22;;;2.10;;
78336;SDS011;67610;51.588;7.002;2023-04-02T14:02:12;3.47;;;1.92;;
78336;SDS011;67610;51.588;7.002;2023-04-02T14:04:46;3.83;;;2.20;;
78336;SDS011;67610;51.588;7.002;2023-04-02T14:07:19;3.42;;;2.08;;
78336;SDS011;67610;51.588;7.002;2023-04-02T14:09:59;4.85;;;2.00;;
78336;SDS011;67610;51.588;7.002;2023-04-02T14:18:18;3.40;;;2.33;;
78336;SDS011;67610;51.588;7.002;2023-04-02T14:26:25;4.32;;;2.20;;
78336;SDS011;67610;51.588;7.002;2023-04-02T14:32:02;3.38;;;2.13;;
78336;SDS011;67610;51.588;7.002;2023-04-02T14:34:45;2.85;;;1.80;;
78336;SDS011;67610;51.588;7.002;2023-04-02T14:37:31;3.92;;;2.20;;
78336;SDS011;67610;51.588;7.002;2023-04-02T14:40:22;3.22;;;2.03;;
78336;SDS011;67610;51.588;7.002;2023-04-02T14:43:01;4.18;;;2.00;;
78336;SDS011;67610;51.588;7.002;2023-04-02T14:45:35;4.60;;;2.30;;
78336;SDS011;67610;51.588;7.002;2023-04-02T14:50:38;3.58;;;2.00;;
78336;SDS011;67610;51.588;7.002;2023-04-02T14:53:11;5.07;;;2.20;;
78336;SDS011;67610;51.588;7.002;2023-04-02T14:55:45;5.72;;;2.30;;
78336;SDS011;67610;51.588;7.002;2023-04-02T14:58:20;3.70;;;2.03;;
78336;SDS011;67610;51.588;7.002;2023-04-02T15:00:56;3.00;;;2.00;;
78336;SDS011;67610;51.588;7.002;2023-04-02T15:03:34;4.40;;;1.98;;
78336;SDS011;67610;51.588;7.002;2023-04-02T15:06:10;4.40;;;2.00;;
78336;SDS011;67610;51.588;7.002;2023-04-02T15:08:50;4.15;;;2.13;;
78336;SDS011;67610;51.588;7.002;2023-04-02T15:11:26;3.28;;;1.90;;
78336;SDS011;67610;51.588;7.002;2023-04-02T15:16:44;4.70;;;2.38;;
78336;SDS011;67610;51.588;7.002;2023-04-02T15:19:11;3.22;;;1.92;;
78336;SDS011;67610;51.588;7.002;2023-04-02T15:30:13;3.70;;;1.90;;
78336;SDS011;67610;51.588;7.002;2023-04-02T15:32:44;3.90;;;1.73;;
78336;SDS011;67610;51.588;7.002;2023-04-02T15:35:18;2.45;;;1.67;;
78336;SDS011;67610;51.588;7.002;2023-04-02T15:38:07;4.90;;;1.80;;
78336;SDS011;67610;51.588;7.002;2023-04-02T15:41:03;4.18;;;2.20;;
78336;SDS011;67610;51.588;7.002;2023-04-02T15:43:45;2.67;;;1.70;;
78336;SDS011;67610;51.588;7.002;2023-04-02T15:46:20;2.88;;;2.00;;
78336;SDS011;67610;51.588;7.002;2023-04-02T15:54:29;3.83;;;1.88;;
78336;SDS011;67610;51.588;7.002;2023-04-02T16:05:37;4.78;;;2.58;;
78336;SDS011;67610;51.588;7.002;2023-04-02T16:08:39;4.82;;;1.90;;
78336;SDS011;67610;51.588;7.002;2023-04-02T16:11:09;3.65;;;2.10;;
78336;SDS011;67610;51.588;7.002;2023-04-02T16:13:36;5.07;;;2.42;;
78336;SDS011;67610;51.588;7.002;2023-04-02T16:16:13;3.40;;;2.10;;
78336;SDS011;67610;51.588;7.002;2023-04-02T16:21:22;4.03;;;2.10;;
78336;SDS011;67610;51.588;7.002;2023-04-02T16:23:51;4.07;;;1.95;;
78336;SDS011;67610;51.588;7.002;2023-04-02T16:29:10;2.65;;;1.65;;
78336;SDS011;67610;51.588;7.002;2023-04-02T16:32:09;4.07;;;1.75;;
78336;SDS011;67610;51.588;7.002;2023-04-02T16:37:55;4.10;;;1.90;;
78336;SDS011;67610;51.588;7.002;2023-04-02T17:05:30;7.22;;;2.28;;
78336;SDS011;67610;51.588;7.002;2023-04-02T17:10:48;3.40;;;2.15;;
78336;SDS011;67610;51.588;7.002;2023-04-02T17:15:58;3.63;;;2.00;;
78336;SDS011;67610;51.588;7.002;2023-04-02T17:18:28;3.80;;;2.55;;
78336;SDS011;67610;51.588;7.002;2023-04-02T17:20:57;3.55;;;2.00;;
78336;SDS011;67610;51.588;7.002;2023-04-02T17:23:27;3.42;;;2.00;;
78336;SDS011;67610;51.588;7.002;2023-04-02T17:25:56;3.80;;;1.80;;
78336;SDS011;67610;51.588;7.002;2023-04-02T17:28:27;4.68;;;2.28;;
78336;SDS011;67610;51.588;7.002;2023-04-02T17:31:00;3.63;;;1.88;;
78336;SDS011;67610;51.588;7.002;2023-04-02T17:33:30;3.22;;;1.80;;
78336;SDS011;67610;51.588;7.002;2023-04-02T17:41:32;2.97;;;1.90;;
78336;SDS011;67610;51.588;7.002;2023-04-02T17:46:36;3.92;;;2.13;;
78336;SDS011;67610;51.588;7.002;2023-04-02T17:51:58;7.50;;;3.40;;
78336;SDS011;67610;51.588;7.002;2023-04-02T18:02:50;3.60;;;2.08;;
78336;SDS011;67610;51.588;7.002;2023-04-02T18:05:24;4.53;;;2.10;;
78336;SDS011;67610;51.588;7.002;2023-04-02T18:08:00;5.35;;;2.40;;
78336;SDS011;67610;51.588;7.002;2023-04-02T18:15:53;3.95;;;2.30;;
78336;SDS011;67610;51.588;7.002;2023-04-02T18:21:21;5.93;;;2.85;;
78336;SDS011;67610;51.588;7.002;2023-04-02T18:37:46;9.27;;;3.97;;
78336;SDS011;67610;51.588;7.002;2023-04-02T18:51:20;4.47;;;2.20;;
78336;SDS011;67610;51.588;7.002;2023-04-02T18:53:52;5.28;;;2.42;;
78336;SDS011;67610;51.588;7.002;2023-04-02T18:56:26;4.78;;;2.20;;
78336;SDS011;67610;51.588;7.002;2023-04-02T19:01:56;4.68;;;2.13;;
78336;SDS011;67610;51.588;7.002;2023-04-02T19:04:28;5.32;;;2.40;;
78336;SDS011;67610;51.588;7.002;2023-04-02T19:07:13;4.45;;;2.13;;
78336;SDS011;67610;51.588;7.002;2023-04-02T19:09:42;5.57;;;2.50;;
78336;SDS011;67610;51.588;7.002;2023-04-02T19:12:16;4.53;;;2.80;;
78336;SDS011;67610;51.588;7.002;2023-04-02T19:14:43;4.47;;;2.47;;
78336;SDS011;67610;51.588;7.002;2023-04-02T19:17:22;4.88;;;2.20;;
78336;SDS011;67610;51.588;7.002;2023-04-02T19:28:20;5.50;;;2.60;;
78336;SDS011;67610;51.588;7.002;2023-04-02T19:33:47;5.00;;;2.65;;
78336;SDS011;67610;51.588;7.002;2023-04-02T19:44:32;7.00;;;2.85;;
78336;SDS011;67610;51.588;7.002;2023-04-02T19:46:58;5.43;;;2.70;;
78336;SDS011;67610;51.588;7.002;2023-04-02T19:49:28;4.20;;;2.83;;
78336;SDS011;67610;51.588;7.002;2023-04-02T19:51:56;5.25;;;2.97;;
78336;SDS011;67610;51.588;7.002;2023-04-02T19:54:22;5.65;;;2.83;;
78336;SDS011;67610;51.588;7.002;2023-04-02T19:56:47;5.50;;;2.90;;
78336;SDS011;67610;51.588;7.002;2023-04-02T19:59:13;5.25;;;2.97;;
78336;SDS011;67610;51.588;7.002;2023-04-02T20:01:38;4.38;;;2.67;;
78336;SDS011;67610;51.588;7.002;2023-04-02T20:04:04;6.90;;;2.75;;
78336;SDS011;67610;51.588;7.002;2023-04-02T20:06:30;5.45;;;2.60;;
78336;SDS011;67610;51.588;7.002;2023-04-02T20:08:56;6.03;;;3.20;;
78336;SDS011;67610;51.588;7.002;2023-04-02T20:11:22;5.30;;;2.80;;
78336;SDS011;67610;51.588;7.002;2023-04-02T20:13:48;6.10;;;2.72;;
78336;SDS011;67610;51.588;7.002;2023-04-02T20:16:14;5.78;;;3.00;;
78336;SDS011;67610;51.588;7.002;2023-04-02T20:18:40;5.65;;;3.05;;
78336;SDS011;67610;51.588;7.002;2023-04-02T20:21:06;5.10;;;2.97;;
78336;SDS011;67610;51.588;7.002;2023-04-02T20:23:32;5.57;;;2.92;;